createdAt,value
2023-01-07T00:00:27.715Z,996.33
2023-01-07T00:01:27.691Z,996.32
2023-01-07T00:02:27.698Z,996.28
2023-01-07T00:03:27.676Z,996.33
2023-01-07T00:04:27.668Z,996.38
2023-01-07T00:05:27.650Z,996.55
2023-01-07T00:06:27.650Z,996.39
2023-01-07T00:07:27.639Z,996.38
2023-01-07T00:08:27.619Z,996.33
2023-01-07T00:09:27.616Z,996.36
2023-01-07T00:10:27.610Z,996.44
2023-01-07T00:11:27.617Z,996.43
2023-01-07T00:12:27.685Z,996.35
2023-01-07T00:13:27.597Z,996.24
2023-01-07T00:14:27.606Z,996.42
2023-01-07T00:15:27.575Z,996.34
2023-01-07T00:16:27.679Z,996.29
2023-01-07T00:17:27.569Z,996.30
2023-01-07T00:18:27.550Z,996.36
2023-01-07T00:19:27.542Z,996.28
2023-01-07T00:20:27.539Z,996.33
2023-01-07T00:21:27.537Z,996.28
2023-01-07T00:22:27.532Z,996.36
2023-01-07T00:23:27.525Z,996.34
2023-01-07T00:24:27.538Z,996.35
2023-01-07T00:25:27.531Z,996.28
2023-01-07T00:26:27.504Z,996.29
2023-01-07T00:27:27.512Z,996.28
2023-01-07T00:28:27.577Z,996.30
2023-01-07T00:29:27.473Z,996.30
2023-01-07T00:30:27.475Z,996.28
2023-01-07T00:31:27.648Z,996.22
2023-01-07T00:32:27.483Z,996.30
2023-01-07T00:33:27.486Z,996.24
2023-01-07T00:34:27.459Z,996.20
2023-01-07T00:35:27.452Z,996.33
2023-01-07T00:36:27.456Z,996.28
2023-01-07T00:37:27.429Z,996.31
2023-01-07T00:38:27.438Z,996.30
2023-01-07T00:39:27.429Z,996.35
2023-01-07T00:40:27.409Z,996.20
2023-01-07T00:41:27.421Z,996.24
2023-01-07T00:42:27.416Z,996.18
2023-01-07T00:43:27.387Z,996.27
2023-01-07T00:44:27.478Z,996.27
2023-01-07T00:45:27.376Z,996.29
2023-01-07T00:46:27.437Z,996.20
2023-01-07T00:47:27.360Z,996.26
2023-01-07T00:48:27.370Z,996.25
2023-01-07T00:49:27.359Z,996.30
2023-01-07T00:50:27.335Z,996.20
2023-01-07T00:51:27.338Z,996.27
2023-01-07T00:52:27.335Z,996.23
2023-01-07T00:53:27.329Z,996.22
2023-01-07T00:54:27.319Z,996.28
2023-01-07T00:55:27.327Z,996.26
2023-01-07T00:56:27.295Z,996.27
2023-01-07T00:57:27.300Z,996.22
2023-01-07T00:58:27.306Z,996.24
2023-01-07T00:59:27.279Z,996.23
2023-01-07T01:00:27.360Z,996.19
2023-01-07T01:01:27.323Z,996.27
2023-01-07T01:02:27.354Z,996.19
2023-01-07T01:03:27.263Z,996.23
2023-01-07T01:04:27.250Z,996.16
2023-01-07T01:05:27.236Z,996.16
2023-01-07T01:06:27.240Z,996.29
2023-01-07T01:07:27.225Z,996.14
2023-01-07T01:08:27.250Z,996.16
2023-01-07T01:09:27.214Z,996.24
2023-01-07T01:10:27.203Z,996.04
2023-01-07T01:11:27.195Z,996.20
2023-01-07T01:12:27.193Z,996.20
2023-01-07T01:13:27.186Z,996.11
2023-01-07T01:14:27.171Z,996.22
2023-01-07T01:15:27.165Z,996.15
2023-01-07T01:16:27.411Z,996.13
2023-01-07T01:17:27.140Z,996.24
2023-01-07T01:18:28.151Z,996.16
2023-01-07T01:19:27.147Z,996.14
2023-01-07T01:20:27.138Z,996.17
2023-01-07T01:21:27.131Z,996.15
2023-01-07T01:22:27.123Z,996.10
2023-01-07T01:23:27.108Z,996.03
2023-01-07T01:24:27.130Z,996.13
2023-01-07T01:25:27.106Z,996.10
2023-01-07T01:26:27.086Z,996.15
2023-01-07T01:27:27.087Z,996.17
2023-01-07T01:28:27.110Z,996.21
2023-01-07T01:29:27.074Z,996.23
2023-01-07T01:30:27.068Z,996.12
2023-01-07T01:31:27.122Z,996.16
2023-01-07T01:32:27.046Z,996.17
2023-01-07T01:33:27.045Z,996.18
2023-01-07T01:34:27.046Z,996.22
2023-01-07T01:35:27.032Z,996.19
2023-01-07T01:36:27.030Z,996.20
2023-01-07T01:37:27.016Z,996.18
2023-01-07T01:38:27.008Z,996.10
2023-01-07T01:39:27.017Z,996.12
2023-01-07T01:40:26.999Z,996.14
2023-01-07T01:41:26.997Z,996.21
2023-01-07T01:42:27.008Z,996.17
2023-01-07T01:43:26.974Z,996.25
2023-01-07T01:44:26.957Z,996.21
2023-01-07T01:45:26.999Z,996.15
2023-01-07T01:46:26.998Z,996.15
2023-01-07T01:47:26.946Z,996.11
2023-01-07T01:48:26.944Z,996.13
2023-01-07T01:49:26.938Z,996.07
2023-01-07T01:50:26.939Z,996.17
2023-01-07T01:51:26.930Z,996.12
2023-01-07T01:52:26.914Z,996.08
2023-01-07T01:53:26.917Z,996.11
2023-01-07T01:54:26.905Z,996.09
2023-01-07T01:55:27.009Z,996.07
2023-01-07T01:56:26.889Z,996.04
2023-01-07T01:57:26.865Z,996.01
2023-01-07T01:58:26.866Z,996.17
2023-01-07T01:59:26.866Z,996.05
2023-01-07T02:00:26.889Z,996.13
2023-01-07T02:01:26.952Z,996.05
2023-01-07T02:02:26.892Z,996.03
2023-01-07T02:03:26.837Z,996.00
2023-01-07T02:04:26.919Z,996.07
2023-01-07T02:05:26.825Z,996.01
2023-01-07T02:06:26.813Z,996.04
2023-01-07T02:07:26.813Z,995.97
2023-01-07T02:08:26.795Z,996.01
2023-01-07T02:09:26.796Z,996.01
2023-01-07T02:10:26.790Z,996.00
2023-01-07T02:11:26.792Z,996.05
2023-01-07T02:12:26.789Z,996.00
2023-01-07T02:13:26.762Z,995.91
2023-01-07T02:14:26.755Z,996.20
2023-01-07T02:15:26.746Z,996.00
2023-01-07T02:16:26.784Z,996.07
2023-01-07T02:17:26.750Z,995.97
2023-01-07T02:18:26.737Z,996.04
2023-01-07T02:19:26.729Z,995.95
2023-01-07T02:20:26.826Z,995.94
2023-01-07T02:21:26.706Z,995.93
2023-01-07T02:22:26.717Z,995.96
2023-01-07T02:23:26.699Z,995.98
2023-01-07T02:24:26.702Z,995.97
2023-01-07T02:25:26.679Z,995.97
2023-01-07T02:26:26.678Z,995.94
2023-01-07T02:27:26.688Z,995.93
2023-01-07T02:28:26.665Z,995.92
2023-01-07T02:29:26.676Z,995.88
2023-01-07T02:30:26.643Z,995.82
2023-01-07T02:31:26.674Z,995.93
2023-01-07T02:32:26.694Z,995.92
2023-01-07T02:33:26.628Z,995.96
2023-01-07T02:34:26.625Z,995.95
2023-01-07T02:35:26.614Z,995.93
2023-01-07T02:36:26.706Z,995.92
2023-01-07T02:37:26.607Z,995.87
2023-01-07T02:38:26.598Z,995.85
2023-01-07T02:39:26.603Z,995.86
2023-01-07T02:40:26.592Z,995.88
2023-01-07T02:41:26.588Z,995.96
2023-01-07T02:42:26.570Z,996.01
2023-01-07T02:43:26.571Z,995.82
2023-01-07T02:44:26.595Z,995.74
2023-01-07T02:45:26.601Z,995.80
2023-01-07T02:46:26.542Z,995.95
2023-01-07T02:47:26.534Z,995.82
2023-01-07T02:48:26.534Z,995.81
2023-01-07T02:49:26.536Z,995.79
2023-01-07T02:50:26.527Z,995.87
2023-01-07T02:51:26.510Z,995.78
2023-01-07T02:52:26.600Z,995.74
2023-01-07T02:53:26.513Z,995.69
2023-01-07T02:54:26.504Z,995.76
2023-01-07T02:55:26.489Z,995.67
2023-01-07T02:56:26.469Z,995.74
2023-01-07T02:57:26.474Z,995.78
2023-01-07T02:58:26.466Z,995.81
2023-01-07T02:59:26.469Z,995.75
2023-01-07T03:00:26.470Z,995.69
2023-01-07T03:01:26.603Z,995.68
2023-01-07T03:02:26.447Z,995.74
2023-01-07T03:03:26.441Z,995.81
2023-01-07T03:04:26.447Z,995.65
2023-01-07T03:05:26.454Z,995.82
2023-01-07T03:06:26.440Z,995.77
2023-01-07T03:07:26.403Z,995.70
2023-01-07T03:08:26.499Z,995.68
2023-01-07T03:09:26.389Z,995.59
2023-01-07T03:10:26.390Z,995.63
2023-01-07T03:11:26.377Z,995.66
2023-01-07T03:12:26.378Z,995.61
2023-01-07T03:13:26.362Z,995.56
2023-01-07T03:14:26.363Z,995.46
2023-01-07T03:15:28.787Z,995.64
2023-01-07T03:16:26.375Z,995.64
2023-01-07T03:17:26.332Z,995.54
2023-01-07T03:18:26.339Z,995.52
2023-01-07T03:19:26.327Z,995.58
2023-01-07T03:20:26.329Z,995.68
2023-01-07T03:21:26.312Z,995.58
2023-01-07T03:22:26.301Z,995.52
2023-01-07T03:23:26.290Z,995.55
2023-01-07T03:24:27.405Z,995.50
2023-01-07T03:25:26.342Z,995.51
2023-01-07T03:26:26.275Z,995.48
2023-01-07T03:27:26.269Z,995.60
2023-01-07T03:28:26.257Z,995.52
2023-01-07T03:29:26.253Z,995.61
2023-01-07T03:30:26.258Z,995.58
2023-01-07T03:31:26.331Z,995.54
2023-01-07T03:32:26.235Z,995.63
2023-01-07T03:33:26.234Z,995.54
2023-01-07T03:34:26.223Z,995.49
2023-01-07T03:35:26.279Z,995.52
2023-01-07T03:36:26.249Z,995.51
2023-01-07T03:37:26.201Z,995.46
2023-01-07T03:38:26.197Z,995.61
2023-01-07T03:39:26.181Z,995.67
2023-01-07T03:40:26.314Z,995.53
2023-01-07T03:41:26.186Z,995.47
2023-01-07T03:42:26.176Z,995.41
2023-01-07T03:43:26.168Z,995.36
2023-01-07T03:44:26.162Z,995.44
2023-01-07T03:45:26.252Z,995.53
2023-01-07T03:46:26.158Z,995.41
2023-01-07T03:47:26.150Z,995.41
2023-01-07T03:48:26.134Z,995.46
2023-01-07T03:49:26.123Z,995.37
2023-01-07T03:50:26.125Z,995.42
2023-01-07T03:51:26.113Z,995.32
2023-01-07T03:52:26.118Z,995.44
2023-01-07T03:53:26.098Z,995.41
2023-01-07T03:54:26.105Z,995.40
2023-01-07T03:55:26.090Z,995.40
2023-01-07T03:56:26.089Z,995.41
2023-01-07T03:57:26.064Z,995.34
2023-01-07T03:58:26.073Z,995.41
2023-01-07T03:59:26.057Z,995.40
2023-01-07T04:00:26.051Z,995.33
2023-01-07T04:01:26.219Z,995.40
2023-01-07T04:02:26.047Z,995.30
2023-01-07T04:03:26.028Z,995.35
2023-01-07T04:04:26.079Z,995.46
2023-01-07T04:05:26.028Z,995.42
2023-01-07T04:06:26.010Z,995.29
2023-01-07T04:07:26.010Z,995.34
2023-01-07T04:08:26.016Z,995.29
2023-01-07T04:09:25.985Z,995.42
2023-01-07T04:10:25.980Z,995.25
2023-01-07T04:11:25.977Z,995.22
2023-01-07T04:12:26.073Z,995.27
2023-01-07T04:13:25.960Z,995.20
2023-01-07T04:14:25.962Z,995.25
2023-01-07T04:15:25.948Z,995.18
2023-01-07T04:16:25.977Z,995.27
2023-01-07T04:17:25.973Z,995.18
2023-01-07T04:18:25.929Z,995.18
2023-01-07T04:19:25.927Z,995.26
2023-01-07T04:20:25.919Z,995.17
2023-01-07T04:21:25.914Z,995.27
2023-01-07T04:22:25.916Z,995.15
2023-01-07T04:23:25.897Z,995.14
2023-01-07T04:24:25.888Z,995.18
2023-01-07T04:25:25.886Z,995.10
2023-01-07T04:26:25.871Z,995.12
2023-01-07T04:27:25.865Z,995.09
2023-01-07T04:28:25.969Z,995.03
2023-01-07T04:29:25.858Z,995.09
2023-01-07T04:30:25.902Z,995.23
2023-01-07T04:31:25.837Z,995.10
2023-01-07T04:32:25.835Z,995.05
2023-01-07T04:33:25.848Z,995.06
2023-01-07T04:34:25.830Z,995.05
2023-01-07T04:35:25.851Z,995.04
2023-01-07T04:36:25.825Z,995.03
2023-01-07T04:37:25.811Z,995.02
2023-01-07T04:38:25.828Z,995.01
2023-01-07T04:39:25.785Z,995.00
2023-01-07T04:40:25.803Z,995.04
2023-01-07T04:41:25.783Z,995.04
2023-01-07T04:42:25.782Z,995.06
2023-01-07T04:43:25.815Z,994.98
2023-01-07T04:44:25.866Z,994.94
2023-01-07T04:45:25.763Z,994.99
2023-01-07T04:46:25.750Z,994.94
2023-01-07T04:47:25.744Z,994.92
2023-01-07T04:48:25.746Z,994.97
2023-01-07T04:49:25.736Z,994.87
2023-01-07T04:50:25.730Z,994.98
2023-01-07T04:51:25.710Z,994.91
2023-01-07T04:52:25.703Z,994.84
2023-01-07T04:53:25.708Z,994.94
2023-01-07T04:54:25.700Z,994.87
2023-01-07T04:55:25.680Z,994.89
2023-01-07T04:56:25.690Z,995.02
2023-01-07T04:57:25.687Z,994.90
2023-01-07T04:58:25.663Z,994.89
2023-01-07T04:59:25.658Z,994.84
2023-01-07T05:00:25.734Z,994.75
2023-01-07T05:01:25.848Z,994.77
2023-01-07T05:02:25.639Z,994.81
2023-01-07T05:03:25.627Z,994.83
2023-01-07T05:04:25.681Z,994.74
2023-01-07T05:05:25.637Z,994.70
2023-01-07T05:06:25.618Z,994.72
2023-01-07T05:07:25.608Z,994.81
2023-01-07T05:08:25.593Z,994.68
2023-01-07T05:09:25.615Z,994.66
2023-01-07T05:10:25.580Z,994.67
2023-01-07T05:11:25.576Z,994.71
2023-01-07T05:12:25.562Z,994.62
2023-01-07T05:13:25.565Z,994.60
2023-01-07T05:14:25.568Z,994.58
2023-01-07T05:15:25.596Z,994.58
2023-01-07T05:16:25.677Z,994.57
2023-01-07T05:17:25.554Z,994.60
2023-01-07T05:18:25.543Z,994.51
2023-01-07T05:19:25.535Z,994.56
2023-01-07T05:20:25.525Z,994.53
2023-01-07T05:21:25.523Z,994.54
2023-01-07T05:22:25.508Z,994.53
2023-01-07T05:23:25.485Z,994.53
2023-01-07T05:24:25.490Z,994.53
2023-01-07T05:25:25.496Z,994.64
2023-01-07T05:26:25.473Z,994.59
2023-01-07T05:27:25.463Z,994.57
2023-01-07T05:28:25.447Z,994.60
2023-01-07T05:29:25.454Z,994.58
2023-01-07T05:30:25.530Z,994.66
2023-01-07T05:31:25.439Z,994.61
2023-01-07T05:32:25.528Z,994.54
2023-01-07T05:33:25.430Z,994.56
2023-01-07T05:34:25.478Z,994.56
2023-01-07T05:35:25.413Z,994.56
2023-01-07T05:36:25.412Z,994.53
2023-01-07T05:37:25.400Z,994.53
2023-01-07T05:38:25.396Z,994.47
2023-01-07T05:39:25.376Z,994.52
2023-01-07T05:40:25.379Z,994.45
2023-01-07T05:41:25.384Z,994.55
2023-01-07T05:42:25.378Z,994.48
2023-01-07T05:43:25.379Z,994.50
2023-01-07T05:44:25.352Z,994.51
2023-01-07T05:45:25.381Z,994.52
2023-01-07T05:46:25.420Z,994.51
2023-01-07T05:47:25.328Z,994.56
2023-01-07T05:48:25.446Z,994.48
2023-01-07T05:49:25.333Z,994.54
2023-01-07T05:50:25.308Z,994.54
2023-01-07T05:51:25.297Z,994.61
2023-01-07T05:52:25.299Z,994.57
2023-01-07T05:53:25.312Z,994.55
2023-01-07T05:54:25.292Z,994.54
2023-01-07T05:55:25.305Z,994.53
2023-01-07T05:56:25.287Z,994.50
2023-01-07T05:57:25.307Z,994.54
2023-01-07T05:58:25.263Z,994.47
2023-01-07T05:59:25.257Z,994.46
2023-01-07T06:00:25.240Z,994.47
2023-01-07T06:01:26.363Z,994.43
2023-01-07T06:02:25.236Z,994.44
2023-01-07T06:03:25.307Z,994.40
2023-01-07T06:04:25.367Z,994.35
2023-01-07T06:05:25.209Z,994.47
2023-01-07T06:06:25.196Z,994.48
2023-01-07T06:07:25.209Z,994.43
2023-01-07T06:08:25.190Z,994.46
2023-01-07T06:09:25.200Z,994.44
2023-01-07T06:10:25.181Z,994.48
2023-01-07T06:11:25.173Z,994.41
2023-01-07T06:12:25.161Z,994.40
2023-01-07T06:13:25.162Z,994.42
2023-01-07T06:14:25.158Z,994.46
2023-01-07T06:15:25.156Z,994.41
2023-01-07T06:16:25.124Z,994.40
2023-01-07T06:17:25.129Z,994.36
2023-01-07T06:18:25.163Z,994.45
2023-01-07T06:19:25.114Z,994.35
2023-01-07T06:20:25.206Z,994.40
2023-01-07T06:21:25.120Z,994.40
2023-01-07T06:22:25.089Z,994.41
2023-01-07T06:23:25.088Z,994.42
2023-01-07T06:24:25.085Z,994.45
2023-01-07T06:25:25.114Z,994.44
2023-01-07T06:26:25.064Z,994.44
2023-01-07T06:27:25.064Z,994.38
2023-01-07T06:28:25.059Z,994.43
2023-01-07T06:29:25.070Z,994.31
2023-01-07T06:30:25.056Z,994.32
2023-01-07T06:31:25.088Z,994.33
2023-01-07T06:32:25.018Z,994.26
2023-01-07T06:33:25.016Z,994.29
2023-01-07T06:34:25.042Z,994.32
2023-01-07T06:35:25.021Z,994.34
2023-01-07T06:36:25.095Z,994.20
2023-01-07T06:37:24.989Z,994.27
2023-01-07T06:38:25.033Z,994.19
2023-01-07T06:39:24.968Z,994.27
2023-01-07T06:40:24.967Z,994.24
2023-01-07T06:41:24.960Z,994.26
2023-01-07T06:42:24.952Z,994.22
2023-01-07T06:43:24.957Z,994.19
2023-01-07T06:44:24.952Z,994.23
2023-01-07T06:45:24.933Z,994.19
2023-01-07T06:46:25.027Z,994.28
2023-01-07T06:47:24.921Z,994.30
2023-01-07T06:48:24.920Z,994.17
2023-01-07T06:49:24.906Z,994.06
2023-01-07T06:50:24.896Z,994.19
2023-01-07T06:51:24.902Z,994.17
2023-01-07T06:52:24.907Z,994.12
2023-01-07T06:53:24.887Z,994.12
2023-01-07T06:54:24.874Z,994.12
2023-01-07T06:55:24.866Z,994.11
2023-01-07T06:56:24.848Z,994.13
2023-01-07T06:57:24.857Z,994.13
2023-01-07T06:58:24.868Z,994.13
2023-01-07T06:59:24.845Z,994.09
2023-01-07T07:00:24.834Z,994.15
2023-01-07T07:01:24.960Z,994.18
2023-01-07T07:02:24.973Z,994.11
2023-01-07T07:03:24.821Z,994.15
2023-01-07T07:04:24.821Z,994.11
2023-01-07T07:05:24.820Z,994.13
2023-01-07T07:06:24.831Z,994.11
2023-01-07T07:07:24.787Z,994.14
2023-01-07T07:08:24.867Z,994.12
2023-01-07T07:09:24.763Z,994.08
2023-01-07T07:10:24.779Z,994.07
2023-01-07T07:11:24.763Z,994.07
2023-01-07T07:12:24.793Z,994.05
2023-01-07T07:13:24.751Z,994.09
2023-01-07T07:14:24.742Z,994.10
2023-01-07T07:15:24.731Z,994.09
2023-01-07T07:16:24.791Z,994.03
2023-01-07T07:17:24.728Z,994.12
2023-01-07T07:18:24.785Z,994.11
2023-01-07T07:19:24.697Z,994.10
2023-01-07T07:20:24.751Z,994.12
2023-01-07T07:21:24.739Z,994.09
2023-01-07T07:22:24.691Z,994.06
2023-01-07T07:23:24.672Z,994.09
2023-01-07T07:24:24.762Z,994.10
2023-01-07T07:25:24.669Z,994.16
2023-01-07T07:26:24.702Z,994.08
2023-01-07T07:27:24.686Z,994.17
2023-01-07T07:28:24.639Z,994.11
2023-01-07T07:29:24.635Z,994.05
2023-01-07T07:30:46.647Z,994.08
2023-01-07T07:31:25.669Z,994.14
2023-01-07T07:32:24.607Z,994.14
2023-01-07T07:33:24.667Z,994.11
2023-01-07T07:34:24.595Z,994.11
2023-01-07T07:35:24.712Z,994.15
2023-01-07T07:36:24.593Z,994.09
2023-01-07T07:37:24.583Z,994.08
2023-01-07T07:38:24.565Z,994.11
2023-01-07T07:39:24.559Z,994.10
2023-01-07T07:40:24.657Z,994.02
2023-01-07T07:41:24.546Z,994.03
2023-01-07T07:42:24.552Z,994.01
2023-01-07T07:43:24.529Z,994.03
2023-01-07T07:44:24.524Z,994.01
2023-01-07T07:45:24.533Z,994.04
2023-01-07T07:46:24.579Z,994.07
2023-01-07T07:47:24.552Z,994.07
2023-01-07T07:48:24.500Z,993.98
2023-01-07T07:49:24.495Z,993.98
2023-01-07T07:50:24.493Z,993.87
2023-01-07T07:51:24.481Z,993.89
2023-01-07T07:52:24.479Z,993.80
2023-01-07T07:53:24.493Z,993.80
2023-01-07T07:54:24.465Z,993.92
2023-01-07T07:55:26.420Z,993.84
2023-01-07T07:56:24.534Z,993.87
2023-01-07T07:57:24.440Z,993.90
2023-01-07T07:58:24.452Z,993.80
2023-01-07T07:59:24.432Z,993.88
2023-01-07T08:00:24.459Z,993.87
2023-01-07T08:01:24.538Z,993.85
2023-01-07T08:02:24.476Z,993.80
2023-01-07T08:03:24.445Z,993.91
2023-01-07T08:04:24.399Z,993.85
2023-01-07T08:05:24.378Z,993.81
2023-01-07T08:06:25.384Z,993.89
2023-01-07T08:07:32.467Z,993.78
2023-01-07T08:08:25.374Z,993.83
2023-01-07T08:09:24.355Z,993.80
2023-01-07T08:10:24.351Z,993.85
2023-01-07T08:11:24.356Z,993.77
2023-01-07T08:12:24.427Z,993.72
2023-01-07T08:13:24.324Z,993.69
2023-01-07T08:14:24.370Z,993.67
2023-01-07T08:15:24.334Z,993.68
2023-01-07T08:16:24.469Z,993.68
2023-01-07T08:17:24.303Z,993.64
2023-01-07T08:18:24.297Z,993.71
2023-01-07T08:19:24.306Z,993.64
2023-01-07T08:20:24.285Z,993.65
2023-01-07T08:21:24.281Z,993.61
2023-01-07T08:22:24.271Z,993.55
2023-01-07T08:23:24.262Z,993.59
2023-01-07T08:24:24.294Z,993.57
2023-01-07T08:25:24.242Z,993.54
2023-01-07T08:26:24.244Z,993.55
2023-01-07T08:27:24.230Z,993.65
2023-01-07T08:28:24.314Z,993.65
2023-01-07T08:29:24.234Z,993.57
2023-01-07T08:30:24.216Z,993.53
2023-01-07T08:31:24.286Z,993.54
2023-01-07T08:32:24.247Z,993.58
2023-01-07T08:33:24.186Z,993.58
2023-01-07T08:34:25.071Z,993.57
2023-01-07T08:35:25.190Z,993.61
2023-01-07T08:36:24.234Z,993.58
2023-01-07T08:37:24.150Z,993.56
2023-01-07T08:38:24.154Z,993.59
2023-01-07T08:39:24.157Z,993.48
2023-01-07T08:40:24.151Z,993.48
2023-01-07T08:41:24.144Z,993.58
2023-01-07T08:42:24.134Z,993.48
2023-01-07T08:43:24.201Z,993.59
2023-01-07T08:44:24.232Z,993.56
2023-01-07T08:45:24.109Z,993.57
2023-01-07T08:46:24.135Z,993.58
2023-01-07T08:47:24.095Z,993.56
2023-01-07T08:48:24.121Z,993.60
2023-01-07T08:49:24.086Z,993.57
2023-01-07T08:50:24.083Z,993.60
2023-01-07T08:51:24.091Z,993.59
2023-01-07T08:52:24.062Z,993.60
2023-01-07T08:53:24.074Z,993.62
2023-01-07T08:54:24.060Z,993.55
2023-01-07T08:55:24.064Z,993.54
2023-01-07T08:56:24.061Z,993.56
2023-01-07T08:57:24.094Z,993.55
2023-01-07T08:58:24.047Z,993.54
2023-01-07T08:59:24.022Z,993.56
2023-01-07T09:00:24.138Z,993.52
2023-01-07T09:01:24.137Z,993.56
2023-01-07T09:02:24.010Z,993.67
2023-01-07T09:03:24.003Z,993.56
2023-01-07T09:04:23.982Z,993.50
2023-01-07T09:05:23.978Z,993.46
2023-01-07T09:06:23.989Z,993.48
2023-01-07T09:07:23.970Z,993.46
2023-01-07T09:08:23.965Z,993.54
2023-01-07T09:09:23.962Z,993.46
2023-01-07T09:10:23.940Z,993.54
2023-01-07T09:11:23.983Z,993.49
2023-01-07T09:12:23.939Z,993.48
2023-01-07T09:13:23.927Z,993.47
2023-01-07T09:14:23.914Z,993.52
2023-01-07T09:15:23.914Z,993.45
2023-01-07T09:16:24.115Z,993.36
2023-01-07T09:17:24.317Z,993.31
2023-01-07T09:18:23.895Z,993.30
2023-01-07T09:19:23.886Z,993.36
2023-01-07T09:20:23.913Z,993.18
2023-01-07T09:21:23.866Z,993.32
2023-01-07T09:22:23.889Z,993.25
2023-01-07T09:23:23.870Z,993.30
2023-01-07T09:24:23.842Z,993.22
2023-01-07T09:25:23.840Z,993.26
2023-01-07T09:26:23.831Z,993.26
2023-01-07T09:27:23.864Z,993.27
2023-01-07T09:28:23.826Z,993.26
2023-01-07T09:29:23.813Z,993.17
2023-01-07T09:30:23.813Z,993.23
2023-01-07T09:31:24.155Z,993.21
2023-01-07T09:32:23.899Z,993.16
2023-01-07T09:33:23.783Z,993.24
2023-01-07T09:34:23.789Z,993.18
2023-01-07T09:35:23.784Z,993.15
2023-01-07T09:36:23.776Z,993.21
2023-01-07T09:37:23.765Z,993.19
2023-01-07T09:38:23.758Z,993.22
2023-01-07T09:39:23.744Z,993.20
2023-01-07T09:40:23.745Z,993.11
2023-01-07T09:41:23.748Z,993.10
2023-01-07T09:42:23.767Z,993.07
2023-01-07T09:43:23.753Z,993.15
2023-01-07T09:44:23.715Z,993.13
2023-01-07T09:45:23.740Z,993.09
2023-01-07T09:46:23.715Z,993.15
2023-01-07T09:47:23.707Z,993.12
2023-01-07T09:48:25.285Z,993.20
2023-01-07T09:49:26.069Z,993.14
2023-01-07T09:50:25.373Z,993.19
2023-01-07T09:51:24.659Z,993.14
2023-01-07T09:52:23.672Z,993.10
2023-01-07T09:53:23.683Z,993.21
2023-01-07T09:54:23.696Z,993.16
2023-01-07T09:55:23.681Z,993.15
2023-01-07T09:56:23.683Z,993.16
2023-01-07T09:57:23.629Z,993.14
2023-01-07T09:58:23.648Z,993.12
2023-01-07T09:59:23.623Z,993.16
2023-01-07T10:00:23.606Z,993.10
2023-01-07T10:01:23.674Z,993.05
2023-01-07T10:02:23.623Z,993.01
2023-01-07T10:03:23.603Z,993.03
2023-01-07T10:04:23.687Z,993.00
2023-01-07T10:05:23.576Z,993.04
2023-01-07T10:06:38.441Z,993.09
2023-01-07T10:07:25.563Z,992.98
2023-01-07T10:08:30.509Z,992.96
2023-01-07T10:09:24.560Z,993.03
2023-01-07T10:10:23.541Z,993.01
2023-01-07T10:11:23.544Z,992.96
2023-01-07T10:12:23.534Z,992.92
2023-01-07T10:13:23.520Z,993.05
2023-01-07T10:14:23.520Z,993.06
2023-01-07T10:15:23.513Z,992.92
2023-01-07T10:16:23.546Z,992.89
2023-01-07T10:17:23.505Z,992.96
2023-01-07T10:18:23.480Z,992.91
2023-01-07T10:19:23.474Z,992.95
2023-01-07T10:20:23.589Z,992.89
2023-01-07T10:21:23.465Z,992.89
2023-01-07T10:22:23.454Z,992.87
2023-01-07T10:23:23.459Z,992.85
2023-01-07T10:24:23.501Z,992.87
2023-01-07T10:25:23.456Z,992.81
2023-01-07T10:26:23.480Z,992.78
2023-01-07T10:27:23.444Z,992.81
2023-01-07T10:28:23.424Z,992.82
2023-01-07T10:29:23.423Z,992.76
2023-01-07T10:30:23.416Z,992.74
2023-01-07T10:31:23.507Z,992.70
2023-01-07T10:32:23.420Z,992.73
2023-01-07T10:33:23.395Z,992.75
2023-01-07T10:34:23.402Z,992.67
2023-01-07T10:35:23.383Z,992.72
2023-01-07T10:36:23.367Z,992.67
2023-01-07T10:37:23.360Z,992.66
2023-01-07T10:38:23.375Z,992.61
2023-01-07T10:39:23.364Z,992.66
2023-01-07T10:40:23.371Z,992.62
2023-01-07T10:41:23.383Z,992.57
2023-01-07T10:42:23.326Z,992.60
2023-01-07T10:43:24.339Z,992.54
2023-01-07T10:44:23.330Z,992.47
2023-01-07T10:45:23.308Z,992.44
2023-01-07T10:46:23.309Z,992.42
2023-01-07T10:47:23.297Z,992.39
2023-01-07T10:48:23.314Z,992.40
2023-01-07T10:49:23.301Z,992.34
2023-01-07T10:50:24.285Z,992.31
2023-01-07T10:51:23.281Z,992.32
2023-01-07T10:52:23.365Z,992.36
2023-01-07T10:53:23.257Z,992.26
2023-01-07T10:54:23.268Z,992.27
2023-01-07T10:55:23.244Z,992.21
2023-01-07T10:56:23.242Z,992.23
2023-01-07T10:57:23.242Z,992.19
2023-01-07T10:58:23.223Z,992.21
2023-01-07T10:59:23.232Z,992.19
2023-01-07T11:00:23.217Z,992.15
2023-01-07T11:01:23.285Z,992.24
2023-01-07T11:02:23.493Z,992.12
2023-01-07T11:03:23.207Z,992.14
2023-01-07T11:04:23.191Z,992.10
2023-01-07T11:05:23.169Z,992.04
2023-01-07T11:06:23.173Z,992.10
2023-01-07T11:07:23.172Z,992.03
2023-01-07T11:08:23.250Z,992.05
2023-01-07T11:09:23.136Z,992.09
2023-01-07T11:10:23.143Z,992.07
2023-01-07T11:11:23.156Z,992.03
2023-01-07T11:12:23.121Z,992.03
2023-01-07T11:13:23.121Z,992.01
2023-01-07T11:14:23.112Z,992.15
2023-01-07T11:15:23.107Z,992.17
2023-01-07T11:16:23.127Z,992.04
2023-01-07T11:17:23.091Z,991.89
2023-01-07T11:18:23.099Z,992.00
2023-01-07T11:19:23.072Z,992.15
2023-01-07T11:20:24.104Z,991.84
2023-01-07T11:21:43.269Z,991.96
2023-01-07T11:22:24.060Z,991.94
2023-01-07T11:23:23.061Z,991.94
2023-01-07T11:24:23.113Z,991.89
2023-01-07T11:25:23.042Z,991.86
2023-01-07T11:26:23.033Z,991.80
2023-01-07T11:27:24.037Z,991.82
2023-01-07T11:28:23.031Z,991.76
2023-01-07T11:29:23.015Z,991.79
2023-01-07T11:30:23.020Z,991.76
2023-01-07T11:31:23.128Z,991.76
2023-01-07T11:32:22.998Z,991.68
2023-01-07T11:33:22.990Z,991.68
2023-01-07T11:34:23.983Z,991.67
2023-01-07T11:35:23.234Z,991.68
2023-01-07T11:36:22.959Z,991.71
2023-01-07T11:37:22.968Z,991.69
2023-01-07T11:38:22.947Z,991.73
2023-01-07T11:39:22.940Z,991.67
2023-01-07T11:40:22.936Z,991.62
2023-01-07T11:41:22.924Z,991.60
2023-01-07T11:42:22.937Z,991.55
2023-01-07T11:43:22.923Z,991.52
2023-01-07T11:44:22.905Z,991.53
2023-01-07T11:45:22.914Z,991.48
2023-01-07T11:46:25.284Z,991.55
2023-01-07T11:47:22.915Z,991.45
2023-01-07T11:48:22.888Z,991.44
2023-01-07T11:49:22.882Z,991.38
2023-01-07T11:50:22.871Z,991.39
2023-01-07T11:51:22.863Z,991.28
2023-01-07T11:52:22.871Z,991.27
2023-01-07T11:53:22.867Z,991.23
2023-01-07T11:54:22.901Z,991.27
2023-01-07T11:55:22.843Z,991.26
2023-01-07T11:56:22.846Z,991.19
2023-01-07T11:57:22.830Z,991.18
2023-01-07T11:58:29.724Z,991.24
2023-01-07T11:59:23.831Z,991.09
2023-01-07T12:00:22.811Z,991.15
2023-01-07T12:01:22.917Z,991.13
2023-01-07T12:02:22.822Z,991.02
2023-01-07T12:03:22.843Z,991.11
2023-01-07T12:04:22.838Z,991.06
2023-01-07T12:05:22.790Z,991.11
2023-01-07T12:06:22.772Z,990.94
2023-01-07T12:07:22.758Z,991.06
2023-01-07T12:08:22.790Z,991.06
2023-01-07T12:09:22.741Z,990.86
2023-01-07T12:10:22.740Z,990.94
2023-01-07T12:11:22.730Z,991.01
2023-01-07T12:12:22.807Z,990.98
2023-01-07T12:13:22.727Z,990.93
2023-01-07T12:14:22.717Z,990.96
2023-01-07T12:15:22.699Z,990.91
2023-01-07T12:16:22.715Z,990.82
2023-01-07T12:17:22.726Z,990.94
2023-01-07T12:18:22.690Z,990.75
2023-01-07T12:19:22.672Z,990.68
2023-01-07T12:20:22.672Z,990.66
2023-01-07T12:21:22.660Z,990.62
2023-01-07T12:22:22.652Z,990.63
2023-01-07T12:23:22.712Z,990.63
2023-01-07T12:24:22.654Z,990.66
2023-01-07T12:25:22.642Z,990.63
2023-01-07T12:26:22.626Z,990.64
2023-01-07T12:27:22.644Z,990.60
2023-01-07T12:28:22.745Z,990.63